Time;durP1;ratioP1;P1;durP2;ratioP2;P2;SDS_P1;SDS_P2;PMS_P1;PMS_P2;Temp;Humidity;BMP_temperature;BMP_pressure;BME280_temperature;BME280_humidity;BME280_pressure;Samples;Min_cycle;Max_cycle;Signal;HPM_P1;HPM_P2
2021/08/22 00:01:56;;;;;;;9.45;4.82;;;;;;;17.88;97.29;99506.34;5043967;28;20089;-64
2021/08/22 00:04:22;;;;;;;8.38;4.68;;;;;;;17.83;97.20;99235.78;5045720;28;20044;-64
2021/08/22 00:06:47;;;;;;;7.53;4.75;;;;;;;17.80;97.91;99406.31;5063812;28;20221;-64
2021/08/22 00:09:12;;;;;;;7.93;4.35;;;;;;;17.83;97.86;99356.50;5052629;28;20014;-64
2021/08/22 00:11:38;;;;;;;16.25;5.70;;;;;;;17.85;97.98;99287.19;5044071;28;20021;-64
2021/08/22 00:14:03;;;;;;;10.02;4.75;;;;;;;17.81;97.78;99573.22;5044046;28;20022;-64
2021/08/22 00:16:29;;;;;;;9.38;4.78;;;;;;;17.81;97.54;99288.25;5044007;28;20017;-64
2021/08/22 00:18:54;;;;;;;8.82;4.90;;;;;;;17.76;97.52;99267.13;5047685;28;20400;-64
2021/08/22 00:21:19;;;;;;;9.43;4.70;;;;;;;17.80;97.88;99118.72;5043960;28;20098;-64
2021/08/22 00:23:45;;;;;;;8.60;5.28;;;;;;;17.83;98.01;99226.00;5043921;28;20292;-64
2021/08/22 00:26:10;;;;;;;8.52;5.03;;;;;;;17.82;97.90;99410.69;5044153;28;20255;-64
2021/08/22 00:28:36;;;;;;;9.63;5.18;;;;;;;17.85;97.66;99308.50;5044310;28;20075;-64
2021/08/22 00:31:01;;;;;;;10.07;4.78;;;;;;;17.91;97.49;99457.44;5043855;28;20109;-64
2021/08/22 00:33:27;;;;;;;10.60;4.70;;;;;;;17.93;97.36;99253.13;5068124;28;20127;-64
2021/08/22 00:35:53;;;;;;;9.48;5.18;;;;;;;17.88;97.49;99382.97;5070420;28;20091;-64
2021/08/22 00:38:18;;;;;;;8.38;4.80;;;;;;;17.90;97.45;99482.31;5069524;28;20067;-64
2021/08/22 00:40:44;;;;;;;10.07;5.38;;;;;;;17.91;97.54;99553.31;5070359;28;20220;-64
2021/08/22 00:43:09;;;;;;;8.98;4.72;;;;;;;17.93;97.83;99629.59;5052090;28;20028;-64
2021/08/22 00:45:37;;;;;;;9.05;4.95;;;;;;;17.99;98.07;99509.50;5050333;28;20025;-64
2021/08/22 00:48:03;;;;;;;12.07;5.07;;;;;;;18.05;97.84;99465.78;5050504;28;20209;-64
2021/08/22 00:50:29;;;;;;;9.15;5.13;;;;;;;18.07;97.56;99459.47;5050306;28;20017;-64
2021/08/22 00:52:54;;;;;;;10.93;5.00;;;;;;;18.05;97.82;99306.81;5065240;28;20033;-64
2021/08/22 00:55:21;;;;;;;7.18;5.00;;;;;;;18.04;97.72;99353.03;5070253;28;20017;-64
2021/08/22 00:57:48;;;;;;;12.45;5.07;;;;;;;18.02;97.52;99306.06;5070521;28;20024;-64
2021/08/22 01:00:14;;;;;;;8.57;5.43;;;;;;;17.98;97.69;99184.56;5052267;28;20022;-64
2021/08/22 01:05:46;;;;;;;8.30;5.18;;;;;;;17.93;97.50;99396.97;4999146;23;20050;-86
2021/08/22 01:08:39;;;;;;;11.13;4.63;;;;;;;17.93;98.06;99658.00;4991490;28;20030;-86
2021/08/22 01:11:14;;;;;;;11.35;5.50;;;;;;;17.90;98.30;99415.72;4971092;28;20069;-87
2021/08/22 01:13:43;;;;;;;12.73;5.80;;;;;;;17.84;98.31;99291.66;4972254;28;20305;-87
2021/08/22 01:16:11;;;;;;;12.07;5.43;;;;;;;17.86;98.65;99187.72;4970902;29;20038;-87
2021/08/22 01:18:39;;;;;;;15.02;5.07;;;;;;;17.91;98.77;99319.78;4970885;28;20222;-87
2021/08/22 01:21:13;;;;;;;10.85;5.65;;;;;;;17.96;98.74;99269.00;4971277;28;20027;-87
2021/08/22 01:23:47;;;;;;;13.98;6.25;;;;;;;17.95;98.62;99363.16;4972055;28;20029;-87
2021/08/22 01:26:15;;;;;;;8.05;5.32;;;;;;;17.98;98.59;99149.94;4971297;29;20123;-87
2021/08/22 01:28:42;;;;;;;11.70;5.72;;;;;;;17.97;98.71;99164.22;4978451;28;20356;-87
2021/08/22 01:31:13;;;;;;;7.85;5.28;;;;;;;18.01;98.83;99346.94;4991462;28;20046;-87
2021/08/22 01:33:40;;;;;;;7.28;5.15;;;;;;;18.01;98.85;99411.78;4989996;28;20384;-87
2021/08/22 01:36:07;;;;;;;9.63;4.82;;;;;;;18.03;98.32;99313.16;4990151;28;20029;-87
2021/08/22 01:38:34;;;;;;;9.65;6.15;;;;;;;17.98;98.11;99293.78;4989790;28;20033;-87
2021/08/22 01:41:01;;;;;;;10.10;5.18;;;;;;;17.98;98.44;99260.03;4971175;28;20038;-87
2021/08/22 01:43:27;;;;;;;12.70;5.35;;;;;;;17.96;98.83;99202.41;4970009;28;20131;-87
2021/08/22 01:45:55;;;;;;;9.02;5.32;;;;;;;17.93;99.17;99141.25;4967656;28;20023;-87
2021/08/22 01:48:22;;;;;;;10.48;5.45;;;;;;;17.95;98.82;99265.50;4970888;28;20019;-87
2021/08/22 01:50:47;;;;;;;9.15;5.25;;;;;;;17.96;98.95;99343.56;4984746;28;20026;-87
2021/08/22 01:53:13;;;;;;;13.50;4.82;;;;;;;17.99;98.72;99612.53;4967819;28;20030;-87
2021/08/22 01:55:40;;;;;;;8.82;5.35;;;;;;;18.00;98.88;99531.69;4967509;28;20023;-87
2021/08/22 01:58:06;;;;;;;11.38;5.00;;;;;;;18.02;98.51;99380.66;4973419;28;20033;-87
2021/08/22 02:00:32;;;;;;;8.43;4.82;;;;;;;18.00;98.58;99371.88;4973886;28;20261;-87
2021/08/22 02:03:07;;;;;;;10.50;5.30;;;;;;;18.00;98.83;99347.88;4967369;28;20034;-87
2021/08/22 02:05:36;;;;;;;7.90;5.13;;;;;;;18.05;98.45;99247.34;4967236;28;20102;-87
2021/08/22 02:08:08;;;;;;;9.45;5.15;;;;;;;18.04;98.17;99128.41;4970700;28;20221;-87
2021/08/22 02:10:38;;;;;;;9.88;5.63;;;;;;;18.01;98.09;99059.25;4986051;28;20022;-87
2021/08/22 02:13:04;;;;;;;11.65;5.13;;;;;;;18.01;98.34;99035.28;4987693;28;20023;-87
2021/08/22 02:15:33;;;;;;;6.97;4.72;;;;;;;18.01;98.23;99112.53;4986814;28;20097;-87
2021/08/22 02:18:06;;;;;;;10.25;5.30;;;;;;;17.99;98.73;99135.69;4985688;28;20080;-87
2021/08/22 02:20:32;;;;;;;10.38;5.72;;;;;;;18.02;99.00;99274.09;4972415;28;20031;-87
2021/08/22 02:22:59;;;;;;;10.73;5.47;;;;;;;18.06;98.98;99328.97;4966932;29;20023;-87
2021/08/22 02:25:29;;;;;;;10.15;6.03;;;;;;;18.03;99.14;99347.78;4968398;28;20074;-87
2021/08/22 02:27:56;;;;;;;14.55;5.88;;;;;;;18.07;99.27;99522.56;4971164;28;20025;-87
2021/08/22 02:30:22;;;;;;;8.27;4.85;;;;;;;18.05;98.75;99276.63;4985036;28;20038;-87
2021/08/22 02:32:47;;;;;;;9.75;5.38;;;;;;;18.08;98.81;99220.56;4986203;28;20030;-87
2021/08/22 02:35:13;;;;;;;8.57;5.25;;;;;;;18.09;98.29;99216.97;4986084;28;20037;-86
2021/08/22 02:37:38;;;;;;;11.57;5.20;;;;;;;18.10;98.65;99331.47;4986005;28;20053;-86
2021/08/22 02:40:05;;;;;;;13.73;5.60;;;;;;;18.08;98.73;99396.41;4985185;28;20022;-86
2021/08/22 02:42:30;;;;;;;14.88;6.10;;;;;;;18.09;98.64;99537.56;4984849;28;20221;-86
2021/08/22 02:44:56;;;;;;;8.52;5.43;;;;;;;18.11;98.66;99349.22;4967588;28;20030;-86
2021/08/22 02:47:21;;;;;;;12.80;6.57;;;;;;;18.12;98.89;99360.72;4966549;28;20030;-86
2021/08/22 02:49:46;;;;;;;11.57;5.65;;;;;;;18.14;98.92;99279.81;4976381;28;20025;-86
2021/08/22 02:52:13;;;;;;;13.38;6.03;;;;;;;18.16;98.55;99231.81;4978566;28;20027;-86
2021/08/22 02:54:39;;;;;;;9.55;5.15;;;;;;;18.13;98.29;99229.25;4974497;28;20022;-87
2021/08/22 02:57:06;;;;;;;9.30;5.45;;;;;;;18.15;98.38;99232.72;4985837;28;20069;-87
2021/08/22 02:59:31;;;;;;;9.32;5.65;;;;;;;18.14;98.68;99169.69;4980718;28;20122;-87
2021/08/22 03:01:57;;;;;;;11.50;6.75;;;;;;;18.13;98.85;99058.75;4985139;28;20089;-87
2021/08/22 03:04:22;;;;;;;10.38;6.85;;;;;;;18.18;98.61;99222.81;4986276;28;20050;-87
2021/08/22 03:06:47;;;;;;;11.48;6.15;;;;;;;18.18;98.88;99147.31;4985345;28;20058;-87
2021/08/22 03:09:13;;;;;;;20.15;7.28;;;;;;;18.20;99.02;99186.31;4985257;28;20046;-87
2021/08/22 03:11:39;;;;;;;13.27;6.43;;;;;;;18.19;98.76;99218.34;4983780;28;20065;-87
2021/08/22 03:14:05;;;;;;;10.63;6.30;;;;;;;18.19;98.90;99179.22;4965882;28;20082;-87
2021/08/22 03:16:31;;;;;;;12.27;6.43;;;;;;;18.22;98.72;99351.47;4978667;28;20038;-87
2021/08/22 03:18:57;;;;;;;10.73;6.72;;;;;;;18.25;98.63;99292.69;4986133;28;20027;-87
2021/08/22 03:21:22;;;;;;;15.80;6.95;;;;;;;18.25;98.88;99180.78;4984897;28;20038;-87
2021/08/22 03:23:48;;;;;;;11.85;7.53;;;;;;;18.24;98.91;99237.69;4984457;28;20030;-87
2021/08/22 03:26:13;;;;;;;14.77;7.05;;;;;;;18.24;98.70;99184.38;4984952;28;20033;-87
2021/08/22 03:28:38;;;;;;;10.90;7.22;;;;;;;18.22;98.73;99272.38;4985005;28;20033;-87
2021/08/22 03:31:04;;;;;;;13.82;7.93;;;;;;;18.24;98.25;99296.31;4984838;28;20058;-87
2021/08/22 03:33:30;;;;;;;15.57;7.40;;;;;;;18.26;98.59;99289.13;4967692;28;20049;-87
2021/08/22 03:35:55;;;;;;;12.82;8.38;;;;;;;18.28;98.65;99309.44;4965395;29;20031;-87
2021/08/22 03:38:21;;;;;;;18.55;8.85;;;;;;;18.31;98.46;99253.34;4965338;28;20066;-87
2021/08/22 03:40:46;;;;;;;19.67;9.48;;;;;;;18.30;98.65;99194.78;4978806;28;20031;-87
2021/08/22 03:43:12;;;;;;;11.70;8.30;;;;;;;18.31;98.80;99207.16;4970512;28;20337;-87
2021/08/22 03:45:38;;;;;;;17.38;8.75;;;;;;;18.30;98.61;99152.16;4965599;29;20023;-87
2021/08/22 03:48:03;;;;;;;14.93;8.77;;;;;;;18.29;98.81;99259.69;4966619;28;20027;-87
2021/08/22 03:50:29;;;;;;;17.70;10.70;;;;;;;18.33;98.80;99258.63;4971595;28;20023;-87
2021/08/22 03:52:55;;;;;;;15.45;10.63;;;;;;;18.36;98.76;99253.19;4983171;28;20360;-87
2021/08/22 03:55:21;;;;;;;20.85;11.93;;;;;;;18.39;98.82;99293.06;4984508;28;20089;-87
2021/08/22 03:57:46;;;;;;;21.52;11.05;;;;;;;18.40;98.82;99249.47;4984443;28;20027;-87
2021/08/22 04:00:13;;;;;;;20.80;13.48;;;;;;;18.41;98.86;99253.88;4984047;28;20081;-87
2021/08/22 04:02:39;;;;;;;20.00;13.82;;;;;;;18.42;98.95;99316.94;4973986;28;20027;-87
2021/08/22 04:05:07;;;;;;;23.55;16.13;;;;;;;18.46;98.86;99315.88;4965060;28;20035;-87
2021/08/22 04:07:33;;;;;;;24.15;15.10;;;;;;;18.46;98.91;99302.53;4970922;28;20054;-87
2021/08/22 04:09:59;;;;;;;20.30;14.48;;;;;;;18.47;98.89;99370.91;4984252;28;20078;-87
2021/08/22 04:12:26;;;;;;;28.65;16.83;;;;;;;18.46;98.68;99274.09;4979192;28;20031;-87
2021/08/22 04:14:51;;;;;;;26.83;16.40;;;;;;;18.43;98.92;99268.00;4968516;28;20023;-87
2021/08/22 04:17:16;;;;;;;26.00;17.27;;;;;;;18.49;98.84;99318.41;4984423;28;20035;-87
2021/08/22 04:19:42;;;;;;;25.25;17.05;;;;;;;18.50;98.90;99242.84;4983673;28;20023;-87
2021/08/22 04:22:08;;;;;;;24.65;17.05;;;;;;;18.50;99.03;99306.81;4983499;28;20134;-87
2021/08/22 04:24:35;;;;;;;30.65;18.02;;;;;;;18.51;98.83;99321.91;4984664;28;20082;-87
2021/08/22 04:27:02;;;;;;;25.23;17.83;;;;;;;18.51;98.91;99322.75;4984417;28;20057;-87
2021/08/22 04:29:28;;;;;;;26.17;16.98;;;;;;;18.47;98.80;99309.59;4983980;28;20030;-87
2021/08/22 04:31:54;;;;;;;22.33;16.33;;;;;;;18.49;98.79;99353.09;4978964;28;20046;-87
2021/08/22 04:34:20;;;;;;;25.13;15.02;;;;;;;18.54;99.16;99407.09;4983876;28;20018;-87
2021/08/22 04:36:46;;;;;;;24.33;15.93;;;;;;;18.53;98.66;99440.88;4981327;28;20022;-87
2021/08/22 04:39:13;;;;;;;21.48;14.93;;;;;;;18.58;98.53;99478.03;4983921;28;20026;-87
2021/08/22 04:41:38;;;;;;;21.45;13.23;;;;;;;18.58;98.14;99494.03;4982410;28;20101;-87
2021/08/22 04:44:04;;;;;;;19.45;14.70;;;;;;;18.47;98.55;99565.53;4964579;28;20266;-87
2021/08/22 04:46:30;;;;;;;21.80;14.75;;;;;;;18.41;99.04;99624.41;4964494;29;20102;-87
2021/08/22 04:48:55;;;;;;;18.65;13.98;;;;;;;18.39;98.88;99604.94;4964597;28;20024;-87
2021/08/22 04:51:20;;;;;;;23.88;14.10;;;;;;;18.35;99.01;99651.28;4964577;28;20233;-87
2021/08/22 04:53:46;;;;;;;21.42;15.48;;;;;;;18.33;99.23;99498.50;4982066;28;20027;-87
2021/08/22 04:56:11;;;;;;;26.38;16.50;;;;;;;18.32;99.29;99531.44;4984913;28;20046;-87
2021/08/22 04:58:37;;;;;;;22.75;16.00;;;;;;;18.25;99.27;99400.19;4980388;28;20130;-87
2021/08/22 05:01:03;;;;;;;22.27;15.20;;;;;;;18.27;99.13;99488.06;4979767;28;20038;-87
2021/08/22 05:03:28;;;;;;;22.52;15.15;;;;;;;18.30;99.49;99461.31;4982905;28;20245;-87
2021/08/22 05:05:54;;;;;;;21.67;15.13;;;;;;;18.31;98.85;99468.38;4984166;28;20069;-87
2021/08/22 05:08:21;;;;;;;23.98;15.27;;;;;;;18.28;98.61;99484.47;4983304;28;20081;-87
2021/08/22 05:10:48;;;;;;;20.63;15.32;;;;;;;18.25;98.71;99440.16;4983536;28;20321;-87
2021/08/22 05:13:14;;;;;;;25.95;15.85;;;;;;;18.20;99.21;99398.63;4983084;28;20023;-87
2021/08/22 05:15:41;;;;;;;23.48;15.10;;;;;;;18.24;99.46;99365.59;4983337;28;20038;-87
2021/08/22 05:18:07;;;;;;;24.40;14.50;;;;;;;18.22;99.57;99420.75;4984201;28;20027;-87
2021/08/22 05:20:32;;;;;;;22.67;14.57;;;;;;;18.25;99.65;99431.28;4985524;28;20037;-87
2021/08/22 05:22:58;;;;;;;20.60;14.45;;;;;;;18.29;99.76;99448.91;4983287;28;20106;-87
2021/08/22 05:25:23;;;;;;;22.83;14.25;;;;;;;18.29;99.91;99449.75;4988142;28;20027;-87
2021/08/22 05:27:48;;;;;;;19.48;13.60;;;;;;;18.34;99.95;99457.59;4987158;28;20340;-87
2021/08/22 05:30:14;;;;;;;22.48;13.40;;;;;;;18.37;99.93;99495.72;4979485;28;20280;-87
2021/08/22 05:32:39;;;;;;;21.23;14.13;;;;;;;18.40;100.00;99572.03;4979428;28;20033;-87
2021/08/22 05:35:05;;;;;;;19.67;13.73;;;;;;;18.39;100.00;99618.28;4987931;28;20089;-87
2021/08/22 05:37:31;;;;;;;25.27;14.20;;;;;;;18.41;100.00;99492.00;4987305;28;20034;-87
2021/08/22 05:39:56;;;;;;;20.48;12.80;;;;;;;18.41;100.00;99486.66;4986841;28;20026;-87
2021/08/22 05:42:22;;;;;;;22.05;14.88;;;;;;;18.43;100.00;99526.59;4984717;28;20027;-87
2021/08/22 05:44:47;;;;;;;23.92;14.93;;;;;;;18.42;100.00;99504.38;4968214;28;20030;-87
2021/08/22 05:47:18;;;;;;;28.25;15.13;;;;;;;18.43;100.00;99610.13;4967445;28;20043;-86
2021/08/22 05:49:44;;;;;;;21.77;14.65;;;;;;;18.42;100.00;99621.69;4968565;28;20015;-87
2021/08/22 05:52:09;;;;;;;21.63;15.10;;;;;;;18.45;100.00;99604.72;4967348;28;20023;-87
2021/08/22 05:54:36;;;;;;;20.33;14.75;;;;;;;18.52;99.98;99665.78;4983920;28;20019;-87
2021/08/22 05:57:02;;;;;;;19.75;12.98;;;;;;;18.57;99.63;99620.31;4986587;28;20034;-87
2021/08/22 05:59:27;;;;;;;20.48;14.20;;;;;;;18.50;100.00;99762.72;4986157;28;20022;-86
2021/08/22 06:01:53;;;;;;;19.08;12.80;;;;;;;18.51;100.00;99785.84;4986492;28;20062;-86
2021/08/22 06:04:18;;;;;;;19.27;13.52;;;;;;;18.53;100.00;99607.97;4985172;28;20043;-86
2021/08/22 06:06:43;;;;;;;22.30;14.02;;;;;;;18.55;100.00;99643.47;4986469;28;20066;-87
2021/08/22 06:09:09;;;;;;;22.40;14.00;;;;;;;18.55;100.00;99611.47;4986197;28;20098;-87
2021/08/22 06:11:34;;;;;;;17.33;11.68;;;;;;;18.65;99.79;99607.53;4985496;28;20062;-87
2021/08/22 06:14:00;;;;;;;25.13;12.75;;;;;;;18.65;99.64;99623.53;4986275;28;20023;-87
2021/08/22 06:16:25;;;;;;;19.42;12.55;;;;;;;18.64;99.33;99595.16;4986221;28;20029;-86
2021/08/22 06:18:50;;;;;;;17.35;12.20;;;;;;;18.66;99.15;99582.59;4986149;28;20209;-86
2021/08/22 06:21:16;;;;;;;18.50;12.90;;;;;;;18.68;99.12;99565.66;4984190;28;20022;-85
2021/08/22 06:23:42;;;;;;;18.00;11.95;;;;;;;18.68;99.09;99580.75;4966762;28;20015;-85
2021/08/22 06:26:07;;;;;;;17.75;13.27;;;;;;;18.71;99.00;99687.34;4982545;28;20035;-85
2021/08/22 06:28:33;;;;;;;22.80;13.60;;;;;;;18.75;99.20;99582.28;4986349;28;20029;-85
2021/08/22 06:30:58;;;;;;;19.00;13.07;;;;;;;18.83;98.96;99513.50;4971867;28;20258;-86
2021/08/22 06:33:24;;;;;;;19.27;12.68;;;;;;;18.83;98.82;99590.88;4984887;28;20042;-86
2021/08/22 06:35:49;;;;;;;16.98;12.77;;;;;;;18.81;98.56;99357.97;4985903;28;20097;-86
2021/08/22 06:38:15;;;;;;;20.50;13.07;;;;;;;18.84;98.84;99421.88;4985530;28;20101;-86
2021/08/22 06:40:40;;;;;;;24.63;12.57;;;;;;;18.88;98.25;99503.53;4985782;28;20404;-86
2021/08/22 06:43:05;;;;;;;21.08;11.48;;;;;;;18.82;97.65;99487.75;4978390;28;20061;-86
2021/08/22 06:45:31;;;;;;;17.85;11.23;;;;;;;18.81;97.68;99544.69;4987187;28;20042;-86
2021/08/22 06:47:56;;;;;;;17.35;11.98;;;;;;;18.73;98.72;99520.13;4985499;28;20019;-86
2021/08/22 06:50:24;;;;;;;19.58;12.70;;;;;;;18.82;98.79;99461.94;4974484;28;20098;-86
2021/08/22 06:52:51;;;;;;;23.63;12.98;;;;;;;18.94;97.89;99388.56;4974554;28;20030;-86
2021/08/22 06:55:16;;;;;;;15.95;11.57;;;;;;;18.94;97.34;99381.44;4966507;28;20138;-86
2021/08/22 06:57:42;;;;;;;18.63;13.00;;;;;;;18.95;97.61;99532.56;4966466;28;20242;-86
2021/08/22 07:00:08;;;;;;;20.52;14.73;;;;;;;19.02;97.85;99501.19;4965960;28;20054;-86
2021/08/22 07:02:33;;;;;;;23.50;13.60;;;;;;;19.06;97.38;99431.63;4975098;28;20031;-86
2021/08/22 07:04:58;;;;;;;20.80;13.65;;;;;;;19.15;97.60;99387.69;4985132;28;20116;-86
2021/08/22 07:07:24;;;;;;;21.92;13.90;;;;;;;19.22;97.22;99450.56;4986466;28;20217;-86
2021/08/22 07:09:49;;;;;;;19.55;14.45;;;;;;;19.22;97.13;99418.53;4985504;28;20095;-86
2021/08/22 07:12:15;;;;;;;19.08;13.23;;;;;;;19.29;97.15;99526.81;4984519;28;20031;-86
2021/08/22 07:14:41;;;;;;;18.70;11.82;;;;;;;19.34;95.52;99468.78;4984848;28;20023;-86
2021/08/22 07:17:06;;;;;;;20.27;12.27;;;;;;;19.38;95.50;99408.97;4986352;28;20023;-87
2021/08/22 07:19:31;;;;;;;22.33;14.27;;;;;;;19.35;95.78;99425.09;4985364;28;20023;-86
2021/08/22 07:21:57;;;;;;;18.98;12.88;;;;;;;19.37;95.56;99427.72;4984463;28;20027;-87
2021/08/22 07:24:22;;;;;;;16.77;12.10;;;;;;;19.39;95.48;99449.88;4984974;28;20218;-88
2021/08/22 07:26:48;;;;;;;20.33;13.90;;;;;;;19.32;95.91;99457.28;4985244;28;20042;-87
2021/08/22 07:29:13;;;;;;;24.02;15.82;;;;;;;19.29;95.81;99457.41;4984912;28;20210;-87
2021/08/22 07:31:39;;;;;;;26.17;16.90;;;;;;;19.20;95.74;99487.09;4983065;28;20029;-87
2021/08/22 07:34:04;;;;;;;21.92;15.00;;;;;;;19.22;94.43;98954.13;4965822;28;20034;-87
2021/08/22 07:36:30;;;;;;;26.42;16.17;;;;;;;19.12;94.94;98617.47;4965466;28;20026;-87
2021/08/22 07:38:55;;;;;;;19.75;16.55;;;;;;;19.03;95.52;98970.16;4979284;28;20026;-87
2021/08/22 07:41:21;;;;;;;19.58;15.48;;;;;;;19.06;95.16;99167.47;4984600;28;20023;-87
2021/08/22 07:43:46;;;;;;;21.35;16.73;;;;;;;19.04;95.20;99201.34;4984076;28;20023;-87
2021/08/22 07:46:11;;;;;;;24.00;17.25;;;;;;;19.07;94.72;99187.88;4984616;28;20352;-87
2021/08/22 07:48:37;;;;;;;20.50;15.85;;;;;;;19.11;94.08;99180.59;4984619;28;20163;-87
2021/08/22 07:51:02;;;;;;;25.08;15.13;;;;;;;19.11;93.75;99196.63;4984527;28;20098;-87
2021/08/22 07:53:28;;;;;;;19.52;15.18;;;;;;;19.05;94.59;99196.88;4979658;28;20018;-87
2021/08/22 07:55:53;;;;;;;20.73;15.13;;;;;;;18.98;94.71;99168.72;4984330;28;20069;-87
2021/08/22 07:58:19;;;;;;;20.98;14.95;;;;;;;19.00;94.31;99177.53;4965070;28;20019;-87
2021/08/22 08:00:44;;;;;;;22.67;15.30;;;;;;;19.04;94.46;99227.16;4965417;28;20023;-87
2021/08/22 08:03:10;;;;;;;21.63;15.05;;;;;;;19.07;94.35;99205.66;4980194;28;20055;-87
2021/08/22 08:05:36;;;;;;;22.48;14.00;;;;;;;19.18;93.47;99224.75;4984718;28;20023;-87
2021/08/22 08:08:01;;;;;;;19.67;13.88;;;;;;;19.03;94.62;99191.63;4984267;28;20198;-87
2021/08/22 08:10:27;;;;;;;19.92;13.68;;;;;;;19.01;94.85;99205.94;4984182;28;20022;-87
2021/08/22 08:12:52;;;;;;;17.52;12.25;;;;;;;19.06;93.84;98979.81;4970996;28;20023;-87
2021/08/22 08:15:18;;;;;;;20.65;13.20;;;;;;;19.00;93.95;99246.91;4964839;29;20077;-87
2021/08/22 08:17:45;;;;;;;16.33;12.15;;;;;;;18.98;94.27;99179.38;4964828;28;20094;-87
2021/08/22 08:20:11;;;;;;;18.90;13.55;;;;;;;18.97;94.94;99225.69;4965827;28;20011;-87
2021/08/22 08:22:36;;;;;;;22.85;12.63;;;;;;;18.94;95.56;99216.03;4965839;28;20023;-87
2021/08/22 08:25:02;;;;;;;17.10;13.07;;;;;;;19.05;95.67;99352.50;4967770;28;20202;-87
2021/08/22 08:27:27;;;;;;;19.25;11.48;;;;;;;19.13;94.56;99250.75;4967730;28;20033;-87
2021/08/22 08:29:53;;;;;;;17.35;11.77;;;;;;;19.11;94.54;99266.00;4983889;28;20043;-87
2021/08/22 08:32:19;;;;;;;15.15;11.68;;;;;;;19.17;95.34;99265.69;4984581;28;20018;-88
2021/08/22 08:34:44;;;;;;;19.52;12.05;;;;;;;19.21;94.78;99256.66;4983751;28;20027;-88
2021/08/22 08:37:09;;;;;;;19.88;12.23;;;;;;;19.29;94.19;99318.59;4978948;28;20332;-88
2021/08/22 08:39:35;;;;;;;18.05;12.30;;;;;;;19.35;94.84;99302.31;4965730;28;20019;-87
2021/08/22 08:42:22;;;;;;;21.15;15.15;;;;;;;19.38;94.42;99304.84;4975910;28;20061;-87
2021/08/22 08:44:51;;;;;;;52.75;30.95;;;;;;;19.43;93.94;99294.84;4984210;28;20025;-88
2021/08/22 08:47:17;;;;;;;20.85;15.25;;;;;;;19.43;94.05;99283.28;4964663;28;20069;-88
2021/08/22 08:49:48;;;;;;;16.00;12.57;;;;;;;19.38;93.99;99408.97;4965856;28;20023;-88
2021/08/22 08:52:44;;;;;;;15.10;12.05;;;;;;;19.42;94.47;99362.50;4967384;28;20242;-87
2021/08/22 08:55:35;;;;;;;16.70;12.02;;;;;;;19.47;95.36;99355.19;4968424;28;20225;-88
2021/08/22 08:58:00;;;;;;;14.77;9.93;;;;;;;19.51;94.13;99298.03;4971385;28;20027;-87
2021/08/22 09:00:33;;;;;;;14.60;9.63;;;;;;;19.59;92.81;99311.03;4987578;28;20216;-86
2021/08/22 09:03:00;;;;;;;15.43;8.52;;;;;;;19.63;92.99;99225.38;4986330;28;20034;-86
2021/08/22 09:05:28;;;;;;;14.60;8.52;;;;;;;19.59;91.93;99573.66;4983275;28;20098;-86
2021/08/22 09:08:12;;;;;;;11.73;8.07;;;;;;;19.52;91.51;99224.13;4968161;28;20101;-86
2021/08/22 09:10:50;;;;;;;13.95;8.27;;;;;;;19.59;91.33;99508.66;4968084;28;20031;-86
2021/08/22 09:13:40;;;;;;;10.90;7.40;;;;;;;19.62;91.53;99273.50;4969234;28;20074;-86
2021/08/22 09:16:30;;;;;;;10.43;6.75;;;;;;;19.71;90.97;99530.38;4977260;28;20090;-86
2021/08/22 09:19:36;;;;;;;16.13;7.90;;;;;;;19.74;92.03;99396.69;4987084;28;20019;-86
2021/08/22 09:22:30;;;;;;;12.50;8.10;;;;;;;19.54;92.44;98985.47;4988346;28;20027;-86
2021/08/22 09:25:43;;;;;;;11.80;6.60;;;;;;;19.67;91.34;99611.59;4987156;28;20022;-86
2021/08/22 09:28:47;;;;;;;14.60;8.95;;;;;;;19.66;91.93;99703.34;4950498;28;20034;-86
2021/08/22 09:31:50;;;;;;;14.80;7.93;;;;;;;19.76;92.53;99917.59;4967729;28;20031;-86
2021/08/22 09:34:40;;;;;;;12.05;7.65;;;;;;;19.94;91.17;100126.28;4967959;28;20027;-86
2021/08/22 09:37:11;;;;;;;10.70;7.80;;;;;;;20.06;91.92;99949.41;4968019;28;20214;-86
2021/08/22 09:40:14;;;;;;;11.75;7.85;;;;;;;20.17;91.64;99131.91;4973225;28;20061;-86
2021/08/22 09:42:58;;;;;;;11.52;7.35;;;;;;;20.23;92.05;99225.16;4984259;28;20026;-86
2021/08/22 09:46:13;;;;;;;16.98;6.82;;;;;;;20.20;88.98;99118.38;4968712;28;20023;-85
2021/08/22 09:49:00;;;;;;;14.10;6.22;;;;;;;20.09;89.54;99120.69;4967040;29;20031;-85
2021/08/22 09:52:00;;;;;;;9.38;6.53;;;;;;;20.00;89.72;99078.38;4967415;28;20027;-85
2021/08/22 09:55:16;;;;;;;20.23;6.97;;;;;;;20.01;90.00;99168.31;4984340;28;20234;-85
2021/08/22 09:58:19;;;;;;;9.43;5.72;;;;;;;20.19;89.28;99597.81;4968372;28;20027;-85
2021/08/22 10:00:50;;;;;;;12.30;6.57;;;;;;;20.25;88.04;98730.53;4967181;29;20027;-85
2021/08/22 10:03:38;;;;;;;10.27;5.80;;;;;;;20.06;88.67;98709.28;4975491;28;20045;-85
2021/08/22 10:06:22;;;;;;;11.38;7.45;;;;;;;20.19;88.63;98705.00;4972762;28;20031;-85
2021/08/22 10:08:53;;;;;;;87.35;57.47;;;;;;;20.24;88.76;98718.09;4983134;28;20019;-85
2021/08/22 10:11:26;;;;;;;11.40;7.32;;;;;;;20.25;87.69;98707.31;4986373;28;20057;-87
2021/08/22 10:13:51;;;;;;;13.40;6.00;;;;;;;20.31;87.41;98723.03;4971601;28;20141;-87
2021/08/22 10:16:19;;;;;;;14.18;7.15;;;;;;;20.31;88.16;98608.06;4967250;29;20238;-86
2021/08/22 10:18:44;;;;;;;8.20;5.25;;;;;;;20.25;86.98;98758.13;4966805;29;20273;-87
2021/08/22 10:21:11;;;;;;;10.38;6.03;;;;;;;20.22;87.88;98720.03;4979757;28;20030;-87
2021/08/22 10:23:41;;;;;;;10.43;6.72;;;;;;;20.23;88.56;98722.63;4987065;28;20023;-86
2021/08/22 10:26:07;;;;;;;8.88;6.35;;;;;;;20.17;87.65;98722.97;4987547;28;20221;-85
2021/08/22 10:28:45;;;;;;;9.43;5.80;;;;;;;20.22;88.40;98712.00;4984997;28;20073;-85
2021/08/22 10:31:15;;;;;;;8.27;5.65;;;;;;;20.34;87.01;98712.16;4985786;28;20027;-85
2021/08/22 10:34:24;;;;;;;9.70;6.18;;;;;;;20.18;87.17;98702.41;4971054;28;20054;-85
2021/08/22 10:36:50;;;;;;;10.32;6.88;;;;;;;20.14;87.21;98707.09;4985487;28;20022;-85
2021/08/22 10:39:23;;;;;;;12.98;6.85;;;;;;;20.00;88.52;98714.13;4985767;28;20381;-85
2021/08/22 10:41:55;;;;;;;14.98;7.18;;;;;;;19.99;87.31;98713.25;4985775;28;20325;-85
2021/08/22 10:44:36;;;;;;;10.32;6.40;;;;;;;20.03;87.37;98703.28;4984704;28;20198;-85
2021/08/22 10:47:02;;;;;;;15.38;7.57;;;;;;;19.97;88.63;98708.94;4980235;28;20330;-85
2021/08/22 10:49:52;;;;;;;11.60;6.38;;;;;;;20.04;88.21;98716.53;4966653;28;20015;-85
2021/08/22 10:52:26;;;;;;;8.98;6.38;;;;;;;20.02;88.91;98709.53;4966264;28;20019;-85
2021/08/22 10:55:10;;;;;;;9.85;5.85;;;;;;;20.00;88.35;98706.94;4966265;29;20026;-86
2021/08/22 10:57:42;;;;;;;9.98;5.88;;;;;;;20.03;88.11;98698.75;4969289;28;20139;-86
2021/08/22 11:00:27;;;;;;;8.60;6.07;;;;;;;20.17;88.23;98703.38;4986531;28;20031;-86
2021/08/22 11:03:26;;;;;;;10.05;5.78;;;;;;;20.27;87.38;98702.78;4985183;28;20313;-86
2021/08/22 11:05:51;;;;;;;10.45;5.13;;;;;;;20.33;86.80;98705.09;4967872;28;20261;-86
2021/08/22 11:08:18;;;;;;;8.40;5.82;;;;;;;20.32;87.31;98722.09;4984257;28;20027;-86
2021/08/22 11:11:01;;;;;;;8.88;5.72;;;;;;;20.48;86.79;98698.88;4985100;28;20027;-86
2021/08/22 11:13:29;;;;;;;7.97;5.28;;;;;;;20.66;86.57;98699.63;4965960;28;20321;-86
2021/08/22 11:15:56;;;;;;;8.95;5.90;;;;;;;21.08;85.05;98686.38;4966643;28;20023;-86
2021/08/22 11:18:21;;;;;;;10.27;6.85;;;;;;;21.25;83.66;98688.88;4965985;29;20050;-86
2021/08/22 11:20:47;;;;;;;10.10;5.97;;;;;;;21.30;83.68;98687.63;4979224;28;20030;-86
2021/08/22 11:23:17;;;;;;;8.48;4.97;;;;;;;21.24;83.54;98730.84;4985017;28;20026;-86
2021/08/22 11:25:44;;;;;;;9.18;5.85;;;;;;;21.19;84.02;98888.22;4986113;28;20062;-86
2021/08/22 11:28:15;;;;;;;9.63;5.10;;;;;;;21.33;85.13;98899.94;4984966;28;20313;-86
2021/08/22 11:30:42;;;;;;;8.60;5.40;;;;;;;21.21;85.90;98856.00;4984897;28;20027;-86
2021/08/22 11:33:08;;;;;;;10.60;6.00;;;;;;;20.91;86.12;98797.06;4984589;28;20022;-86
2021/08/22 11:35:39;;;;;;;10.52;5.47;;;;;;;20.79;86.44;98784.38;4984818;28;20023;-86